KNGP/NGP METAR and TAF weather

Enter ICAO airport designator
Station Type Date Time Source
KNGP METAR 2019/09/21 20:56 UTC NOAA

KNGP 212056Z AUTO 13015KT 10SM FEW025 31/25 A2996 RMK AO2 SLP146 T03110250 58015 $


Station Type Date Time Source
KNGP Decoded METAR 2019/09/21 20:56 UTC NOAA

CORPUS CHRISTI NAVAL AIR STN, TX, United States (KNGP) 27-41N 097-17W
Sep 21, 2019 - 04:56 PM EDT / 2019.09.21 2056 UTC
Wind: from the SE (130 degrees) at 17 MPH (15 KT):0
Visibility: 10 mile(s):0
Sky conditions: mostly clear
Temperature: 88.0 F (31.1 C)
Heat index: 100.2 F (37.9 C):1
Dew Point: 77.0 F (25.0 C)
Relative Humidity: 70%
Pressure (altimeter): 29.96 in. Hg (1014 hPa)
Pressure tendency: 0.04 inches (1.5 hPa) lower than three hours ago
ob: KNGP 212056Z AUTO 13015KT 10SM FEW025 31/25 A2996 RMK AO2 SLP146 T03110250 58015
cycle: 21

Station Type Date Time Source
KNGP TAF 2019/09/21 15:06 UTC NOAA

TAF KNGP 2115/2215 13015G20KT 9999 FEW020 SCT040 BKN050 QNH2990INS
BECMG 2122/2200 13010G15KT 9999 FEW010 SCT030 SCT100 BKN250 QNH2989INS
BECMG 2204/2206 14011KT 9999 SKC QNH2992INS
FM220900 15011KT 9999 FEW250 QNH2992INS AUTOMATED SENSOR METWATCH 2115 TIL 2311 T31/2121Z T26/2212Z FN00204

Example: see airport list